createdAt,value
2023-05-12T00:02:26.086Z,10.36
2023-05-12T00:05:15.853Z,10.26
2023-05-12T00:08:02.474Z,9.99
2023-05-12T00:10:51.488Z,10.30
2023-05-12T00:13:40.219Z,10.23
2023-05-12T00:16:26.548Z,10.23
2023-05-12T00:19:13.148Z,10.14
2023-05-12T00:22:08.715Z,10.20
2023-05-12T00:24:55.732Z,10.20
2023-05-12T00:27:41.857Z,10.04
2023-05-12T00:30:30.226Z,10.14
2023-05-12T00:33:17.348Z,9.88
2023-05-12T00:36:07.272Z,9.97
2023-05-12T00:38:53.321Z,9.79
2023-05-12T00:41:39.951Z,9.71
2023-05-12T00:44:29.275Z,9.79
2023-05-12T00:47:15.788Z,9.84
2023-05-12T00:50:06.027Z,9.58
2023-05-12T00:52:53.288Z,9.74
2023-05-12T00:55:39.421Z,9.85
2023-05-12T00:58:28.122Z,9.70
2023-05-12T01:01:20.873Z,9.72
2023-05-12T01:04:10.987Z,9.68
2023-05-12T01:07:06.022Z,9.76
2023-05-12T01:09:56.753Z,9.72
2023-05-12T01:12:45.877Z,9.68
2023-05-12T01:15:33.012Z,9.56
2023-05-12T01:18:20.727Z,9.62
2023-05-12T01:21:11.080Z,9.54
2023-05-12T01:23:59.815Z,9.42
2023-05-12T01:26:48.242Z,9.51
2023-05-12T01:29:35.921Z,9.28
2023-05-12T01:32:23.861Z,9.40
2023-05-12T01:35:16.867Z,9.34
2023-05-12T01:38:16.234Z,9.13
2023-05-12T01:41:11.426Z,9.10
2023-05-12T01:43:58.208Z,9.32
2023-05-12T01:46:45.038Z,9.18
2023-05-12T01:49:38.386Z,9.16
2023-05-12T01:52:28.392Z,9.00
2023-05-12T01:55:14.567Z,9.21
2023-05-12T01:58:09.067Z,9.18
2023-05-12T02:00:55.480Z,9.02
2023-05-12T02:03:41.382Z,8.82
2023-05-12T02:06:36.747Z,9.02
2023-05-12T02:09:23.087Z,9.07
2023-05-12T02:12:17.023Z,9.01
2023-05-12T02:15:04.654Z,8.95
2023-05-12T02:17:54.631Z,8.92
2023-05-12T02:20:42.000Z,8.92
2023-05-12T02:23:31.493Z,8.62
2023-05-12T02:26:19.764Z,8.82
2023-05-12T02:29:06.086Z,8.78
2023-05-12T02:31:52.509Z,8.74
2023-05-12T02:34:39.849Z,8.48
2023-05-12T02:37:26.050Z,8.46
2023-05-12T02:40:16.373Z,8.60
2023-05-12T02:43:04.117Z,8.65
2023-05-12T02:45:55.452Z,8.70
2023-05-12T02:48:41.706Z,8.49
2023-05-12T02:51:29.413Z,8.52
2023-05-12T02:54:15.849Z,8.54
2023-05-12T02:57:06.733Z,8.51
2023-05-12T02:59:52.570Z,8.34
2023-05-12T03:02:40.109Z,8.20
2023-05-12T03:05:29.605Z,8.46
2023-05-12T03:08:24.542Z,8.41
2023-05-12T03:11:10.582Z,8.39
2023-05-12T03:13:56.886Z,8.46
2023-05-12T03:16:42.937Z,8.40
2023-05-12T03:19:30.349Z,8.34
2023-05-12T03:22:18.786Z,8.28
2023-05-12T03:25:05.472Z,8.29
2023-05-12T03:27:51.589Z,8.23
2023-05-12T03:30:38.181Z,8.32
2023-05-12T03:33:24.348Z,8.41
2023-05-12T03:36:12.624Z,8.42
2023-05-12T03:38:58.924Z,8.45
2023-05-12T03:41:54.290Z,8.48
2023-05-12T03:44:40.981Z,8.49
2023-05-12T03:47:29.080Z,8.34
2023-05-12T03:50:15.794Z,8.62
2023-05-12T03:53:03.317Z,8.56
2023-05-12T03:55:56.261Z,8.68
2023-05-12T03:58:56.427Z,8.52
2023-05-12T04:01:48.383Z,8.85
2023-05-12T04:04:37.317Z,9.08
2023-05-12T04:07:31.241Z,9.34
2023-05-12T04:10:25.066Z,9.54
2023-05-12T04:13:16.945Z,9.73
2023-05-12T04:16:09.906Z,10.02
2023-05-12T04:18:57.763Z,10.75
2023-05-12T04:21:45.332Z,10.76
2023-05-12T04:24:31.918Z,11.23
2023-05-12T04:27:19.139Z,11.55
2023-05-12T04:30:09.779Z,11.71
2023-05-12T04:33:00.276Z,11.93
2023-05-12T04:35:47.495Z,11.94
2023-05-12T04:38:37.411Z,12.19
2023-05-12T04:41:23.954Z,12.12
2023-05-12T04:44:11.891Z,12.15
2023-05-12T04:47:00.130Z,12.32
2023-05-12T04:49:47.990Z,12.39
2023-05-12T04:52:34.604Z,12.75
2023-05-12T04:55:22.417Z,13.02
2023-05-12T04:58:09.156Z,13.15
2023-05-12T05:00:57.052Z,13.10
2023-05-12T05:03:43.751Z,13.22
2023-05-12T05:06:31.265Z,13.27
2023-05-12T05:09:18.373Z,13.22
2023-05-12T05:12:06.187Z,13.16
2023-05-12T05:14:53.065Z,13.46
2023-05-12T05:17:40.517Z,13.80
2023-05-12T05:20:29.348Z,13.86
2023-05-12T05:23:16.346Z,13.84
2023-05-12T05:26:02.881Z,13.75
2023-05-12T05:28:55.106Z,14.08
2023-05-12T05:31:43.535Z,14.34
2023-05-12T05:34:31.610Z,14.72
2023-05-12T05:37:19.505Z,14.69
2023-05-12T05:40:07.867Z,15.06
2023-05-12T05:42:54.144Z,15.30
2023-05-12T05:45:40.682Z,15.33
2023-05-12T05:48:27.919Z,15.42
2023-05-12T05:51:15.458Z,15.40
2023-05-12T05:54:04.857Z,15.59
2023-05-12T05:56:51.731Z,15.56
2023-05-12T05:59:39.397Z,15.73
2023-05-12T06:02:26.303Z,15.71
2023-05-12T06:05:17.054Z,15.62
2023-05-12T06:08:05.775Z,15.73
2023-05-12T06:10:53.066Z,16.17
2023-05-12T06:13:40.071Z,16.21
2023-05-12T06:16:26.756Z,16.27
2023-05-12T06:19:13.481Z,16.25
2023-05-12T06:22:00.251Z,16.21
2023-05-12T06:24:48.206Z,16.25
2023-05-12T06:27:36.673Z,16.26
2023-05-12T06:30:30.065Z,15.92
2023-05-12T06:33:23.616Z,15.94
2023-05-12T06:36:12.915Z,16.26
2023-05-12T06:39:02.976Z,16.36
2023-05-12T06:41:52.393Z,16.32
2023-05-12T06:44:43.295Z,16.79
2023-05-12T06:47:32.135Z,16.93
2023-05-12T06:50:21.054Z,16.53
2023-05-12T06:53:21.854Z,16.57
2023-05-12T06:56:17.546Z,16.79
2023-05-12T06:59:08.677Z,17.03
2023-05-12T07:02:03.365Z,16.88
2023-05-12T07:04:54.119Z,16.97
2023-05-12T07:07:45.366Z,16.84
2023-05-12T07:10:39.164Z,17.32
2023-05-12T07:13:29.946Z,17.56
2023-05-12T07:16:22.510Z,17.38
2023-05-12T07:19:14.078Z,17.29
2023-05-12T07:22:05.689Z,17.33
2023-05-12T07:24:53.907Z,17.70
2023-05-12T07:27:48.350Z,17.83
2023-05-12T07:30:37.765Z,17.87
2023-05-12T07:33:27.965Z,18.00
2023-05-12T07:36:23.132Z,18.02
2023-05-12T07:39:20.555Z,17.60
2023-05-12T07:42:17.625Z,17.76
2023-05-12T07:45:06.353Z,17.94
2023-05-12T07:47:59.930Z,17.87
2023-05-12T07:50:58.167Z,17.93
2023-05-12T07:53:52.715Z,18.43
2023-05-12T07:56:44.058Z,18.46
2023-05-12T07:59:33.387Z,18.54
2023-05-12T08:02:22.414Z,18.90
2023-05-12T08:05:11.108Z,18.75
2023-05-12T08:08:06.152Z,18.83
2023-05-12T08:10:55.294Z,18.87
2023-05-12T08:13:46.334Z,19.07
2023-05-12T08:16:35.648Z,19.00
2023-05-12T08:19:24.082Z,19.02
2023-05-12T08:22:11.535Z,19.01
2023-05-12T08:24:59.176Z,19.04
2023-05-12T08:27:46.396Z,18.97
2023-05-12T08:30:34.762Z,19.10
2023-05-12T08:33:21.793Z,19.01
2023-05-12T08:36:10.302Z,19.07
2023-05-12T08:38:58.569Z,19.00
2023-05-12T08:42:11.746Z,18.98
2023-05-12T08:45:00.722Z,19.16
2023-05-12T08:47:49.545Z,19.10
2023-05-12T08:50:37.150Z,18.99
2023-05-12T08:53:26.331Z,19.13
2023-05-12T08:59:07.202Z,19.18
2023-05-12T09:01:56.503Z,19.40
2023-05-12T09:04:45.726Z,19.22
2023-05-12T09:07:34.180Z,19.23
2023-05-12T09:13:21.119Z,19.29
2023-05-12T09:16:13.625Z,19.35
2023-05-12T09:19:04.576Z,19.35
2023-05-12T09:21:56.703Z,19.25
2023-05-12T09:24:45.755Z,19.17
2023-05-12T09:27:33.243Z,19.24
2023-05-12T09:30:30.467Z,19.23
2023-05-12T09:33:17.629Z,18.85
2023-05-12T09:36:03.649Z,19.25
2023-05-12T09:39:07.197Z,19.27
2023-05-12T09:41:54.324Z,19.30
2023-05-12T09:44:42.550Z,19.45
2023-05-12T09:47:36.222Z,19.46
2023-05-12T09:50:24.069Z,19.43
2023-05-12T09:53:12.341Z,19.33
2023-05-12T09:56:00.515Z,19.33
2023-05-12T09:58:49.213Z,19.25
2023-05-12T10:01:37.333Z,19.12
2023-05-12T10:04:23.984Z,19.16
2023-05-12T10:07:13.424Z,19.07
2023-05-12T10:10:02.393Z,19.23
2023-05-12T10:12:49.650Z,19.34
2023-05-12T10:15:37.440Z,19.26
2023-05-12T10:18:25.287Z,19.20
2023-05-12T10:21:13.328Z,19.04
2023-05-12T10:24:04.418Z,19.21
2023-05-12T10:26:52.386Z,19.22
2023-05-12T10:29:39.928Z,19.07
2023-05-12T10:32:27.354Z,19.02
2023-05-12T10:35:16.307Z,19.10
2023-05-12T10:38:14.028Z,18.86
2023-05-12T10:41:02.270Z,18.92
2023-05-12T10:43:50.662Z,19.12
2023-05-12T10:46:38.066Z,19.23
2023-05-12T10:49:33.639Z,19.23
2023-05-12T10:52:20.504Z,19.21
2023-05-12T10:55:12.678Z,19.16
2023-05-12T10:58:13.421Z,19.06
2023-05-12T11:01:10.028Z,19.29
2023-05-12T11:03:59.221Z,19.12
2023-05-12T11:06:47.025Z,19.12
2023-05-12T11:09:36.920Z,19.24
2023-05-12T11:12:33.303Z,19.30
2023-05-12T11:15:20.138Z,19.22
2023-05-12T11:18:06.318Z,19.48
2023-05-12T11:20:52.838Z,19.36
2023-05-12T11:23:38.595Z,19.59
2023-05-12T11:26:25.119Z,19.38
2023-05-12T11:29:11.417Z,19.37
2023-05-12T11:31:58.998Z,19.29
2023-05-12T11:34:45.584Z,19.25
2023-05-12T11:37:37.032Z,19.29
2023-05-12T11:40:23.864Z,19.36
2023-05-12T11:43:12.042Z,19.31
2023-05-12T11:45:59.932Z,19.53
2023-05-12T11:48:54.889Z,19.38
2023-05-12T11:51:43.762Z,19.42
2023-05-12T11:54:30.792Z,19.58
2023-05-12T11:57:28.638Z,19.49
2023-05-12T12:00:15.830Z,19.43
2023-05-12T12:03:09.919Z,19.53
2023-05-12T12:06:03.651Z,19.32
2023-05-12T12:08:55.666Z,19.23
2023-05-12T12:11:41.976Z,19.33
2023-05-12T12:14:28.590Z,19.34
2023-05-12T12:17:15.474Z,19.31
2023-05-12T12:20:01.799Z,19.52
2023-05-12T12:22:48.450Z,19.05
2023-05-12T12:25:34.834Z,19.36
2023-05-12T12:28:21.380Z,19.35
2023-05-12T12:31:07.164Z,19.19
2023-05-12T12:33:53.552Z,19.37
2023-05-12T12:36:39.535Z,19.51
2023-05-12T12:39:25.962Z,19.46
2023-05-12T12:42:11.574Z,19.42
2023-05-12T12:44:58.130Z,19.50
2023-05-12T12:47:44.338Z,19.45
2023-05-12T12:50:30.650Z,19.34
2023-05-12T12:53:17.229Z,19.49
2023-05-12T12:56:04.500Z,19.40
2023-05-12T12:58:51.464Z,19.44
2023-05-12T13:01:38.076Z,19.32
2023-05-12T13:04:24.430Z,19.52
2023-05-12T13:07:11.011Z,19.43
2023-05-12T13:09:57.267Z,19.30
2023-05-12T13:12:44.571Z,19.51
2023-05-12T13:15:33.113Z,19.32
2023-05-12T13:18:20.922Z,19.45
2023-05-12T13:21:07.280Z,19.51
2023-05-12T13:23:55.299Z,19.47
2023-05-12T13:26:42.882Z,19.42
2023-05-12T13:29:30.863Z,19.52
2023-05-12T13:32:21.674Z,19.50
2023-05-12T13:35:10.473Z,19.59
2023-05-12T13:37:57.173Z,19.59
2023-05-12T13:40:44.820Z,19.56
2023-05-12T13:43:31.432Z,19.26
2023-05-12T13:46:18.296Z,19.38
2023-05-12T13:49:05.240Z,19.50
2023-05-12T13:51:57.858Z,19.52
2023-05-12T13:54:50.474Z,19.40
2023-05-12T13:57:37.190Z,19.33
2023-05-12T14:00:24.560Z,19.28
2023-05-12T14:03:22.776Z,19.32
2023-05-12T14:06:19.309Z,19.41
2023-05-12T14:09:17.198Z,19.56
2023-05-12T14:12:05.450Z,19.52
2023-05-12T14:14:58.115Z,19.50
2023-05-12T14:17:51.829Z,19.49
2023-05-12T14:20:46.347Z,19.45
2023-05-12T14:23:39.817Z,19.57
2023-05-12T14:26:33.461Z,19.46
2023-05-12T14:29:22.801Z,19.61
2023-05-12T14:32:09.167Z,19.41
2023-05-12T14:34:55.751Z,19.47
2023-05-12T14:37:43.309Z,19.52
2023-05-12T14:40:32.398Z,19.50
2023-05-12T14:43:18.824Z,19.27
2023-05-12T14:46:06.378Z,19.47
2023-05-12T14:48:53.035Z,19.28
2023-05-12T14:51:42.184Z,19.40
2023-05-12T14:54:36.218Z,19.36
2023-05-12T14:57:24.863Z,19.39
2023-05-12T15:00:15.246Z,19.37
2023-05-12T15:03:04.648Z,19.40
2023-05-12T15:08:41.183Z,19.38
2023-05-12T15:11:47.855Z,19.43
2023-05-12T15:14:37.654Z,19.04
2023-05-12T15:17:28.587Z,19.17
2023-05-12T15:20:18.639Z,19.42
2023-05-12T15:23:05.707Z,19.32
2023-05-12T15:25:52.406Z,19.28
2023-05-12T15:28:42.556Z,19.24
2023-05-12T15:31:41.577Z,19.32
2023-05-12T15:34:40.948Z,19.02
2023-05-12T15:37:28.608Z,19.32
2023-05-12T15:40:18.301Z,19.19
2023-05-12T15:43:15.358Z,19.16
2023-05-12T15:46:05.707Z,19.21
2023-05-12T15:48:55.233Z,19.17
2023-05-12T15:51:44.258Z,19.20
2023-05-12T15:54:38.892Z,19.20
2023-05-12T15:57:29.484Z,19.11
2023-05-12T16:00:27.201Z,19.18
2023-05-12T16:03:25.264Z,18.69
2023-05-12T16:06:18.142Z,19.11
2023-05-12T16:09:15.453Z,18.87
2023-05-12T16:12:14.523Z,18.58
2023-05-12T16:15:12.521Z,19.02
2023-05-12T16:18:05.878Z,18.89
2023-05-12T16:21:02.466Z,19.03
2023-05-12T16:23:49.977Z,18.88
2023-05-12T16:26:37.908Z,18.97
2023-05-12T16:29:28.792Z,18.90
2023-05-12T16:32:31.210Z,18.89
2023-05-12T16:35:32.183Z,18.83
2023-05-12T16:38:27.675Z,18.83
2023-05-12T16:41:35.428Z,18.68
2023-05-12T16:44:24.521Z,18.75
2023-05-12T16:47:15.871Z,18.72
2023-05-12T16:50:18.404Z,18.63
2023-05-12T16:53:11.656Z,18.50
2023-05-12T16:56:13.408Z,18.55
2023-05-12T16:59:20.968Z,18.34
2023-05-12T17:02:14.092Z,18.49
2023-05-12T17:05:02.470Z,18.46
2023-05-12T17:07:55.812Z,18.43
2023-05-12T17:10:54.580Z,18.41
2023-05-12T17:13:51.448Z,18.29
2023-05-12T17:16:52.718Z,18.26
2023-05-12T17:19:42.179Z,18.20
2023-05-12T17:22:29.349Z,18.21
2023-05-12T17:25:17.018Z,18.06
2023-05-12T17:28:03.361Z,18.12
2023-05-12T17:30:50.234Z,17.99
2023-05-12T17:33:36.599Z,17.93
2023-05-12T17:36:23.310Z,17.85
2023-05-12T17:39:09.149Z,17.80
2023-05-12T17:41:55.639Z,17.79
2023-05-12T17:44:43.736Z,17.47
2023-05-12T17:47:30.944Z,17.59
2023-05-12T17:50:17.311Z,17.50
2023-05-12T17:53:08.911Z,17.54
2023-05-12T17:55:54.996Z,17.46
2023-05-12T17:58:51.915Z,17.36
2023-05-12T18:01:38.929Z,17.23
2023-05-12T18:04:25.577Z,17.19
2023-05-12T18:07:11.623Z,17.18
2023-05-12T18:10:01.794Z,16.91
2023-05-12T18:12:48.582Z,17.02
2023-05-12T18:15:38.433Z,16.92
2023-05-12T18:18:24.581Z,16.70
2023-05-12T18:21:14.247Z,16.68
2023-05-12T18:24:01.055Z,16.70
2023-05-12T18:26:48.415Z,16.60
2023-05-12T18:29:36.067Z,16.54
2023-05-12T18:32:25.637Z,16.38
2023-05-12T18:35:15.980Z,16.30
2023-05-12T18:38:02.350Z,16.30
2023-05-12T18:40:50.534Z,16.21
2023-05-12T18:43:38.013Z,16.13
2023-05-12T18:46:24.059Z,16.05
2023-05-12T18:49:16.797Z,15.79
2023-05-12T18:52:05.714Z,15.76
2023-05-12T18:54:52.348Z,15.72
2023-05-12T18:57:38.547Z,15.64
2023-05-12T19:00:27.613Z,15.64
2023-05-12T19:03:14.112Z,15.52
2023-05-12T19:06:05.824Z,15.28
2023-05-12T19:08:55.247Z,15.28
2023-05-12T19:11:45.147Z,15.32
2023-05-12T19:14:38.238Z,14.98
2023-05-12T19:17:33.002Z,15.10
2023-05-12T19:20:26.898Z,14.93
2023-05-12T19:23:23.627Z,14.89
2023-05-12T19:26:17.818Z,14.90
2023-05-12T19:29:12.583Z,14.82
2023-05-12T19:32:01.042Z,14.82
2023-05-12T19:34:54.068Z,14.62
2023-05-12T19:37:43.077Z,14.68
2023-05-12T19:40:30.706Z,14.39
2023-05-12T19:43:17.337Z,14.48
2023-05-12T19:46:06.348Z,14.45
2023-05-12T19:48:54.895Z,14.25
2023-05-12T19:51:42.348Z,14.08
2023-05-12T19:54:28.631Z,14.25
2023-05-12T19:57:15.837Z,14.18
2023-05-12T20:00:02.261Z,14.10
2023-05-12T20:02:59.093Z,14.03
2023-05-12T20:05:46.673Z,13.89
2023-05-12T20:08:36.456Z,13.93
2023-05-12T20:11:28.444Z,13.83
2023-05-12T20:14:18.997Z,13.79
2023-05-12T20:17:07.571Z,13.70
2023-05-12T20:19:57.395Z,13.64
2023-05-12T20:22:43.424Z,13.54
2023-05-12T20:25:32.709Z,13.53
2023-05-12T20:28:18.796Z,13.47
2023-05-12T20:31:05.335Z,13.39
2023-05-12T20:33:56.976Z,13.39
2023-05-12T20:36:47.341Z,13.16
2023-05-12T20:39:33.579Z,13.22
2023-05-12T20:42:23.034Z,13.05
2023-05-12T20:45:09.519Z,13.11
2023-05-12T20:47:57.370Z,13.09
2023-05-12T20:50:48.738Z,13.00
2023-05-12T20:53:37.251Z,13.01
2023-05-12T20:56:27.512Z,13.08
2023-05-12T20:59:14.690Z,13.03
2023-05-12T21:02:05.191Z,12.98
2023-05-12T21:04:57.010Z,13.01
2023-05-12T21:07:48.736Z,12.93
2023-05-12T21:10:42.708Z,12.87
2023-05-12T21:13:32.006Z,12.84
2023-05-12T21:16:24.479Z,12.78
2023-05-12T21:19:15.418Z,12.66
2023-05-12T21:22:10.803Z,12.68
2023-05-12T21:24:59.687Z,12.52
2023-05-12T21:27:49.589Z,12.57
2023-05-12T21:30:38.856Z,12.44
2023-05-12T21:33:30.695Z,12.46
2023-05-12T21:36:23.260Z,12.48
2023-05-12T21:39:17.409Z,12.44
2023-05-12T21:42:07.294Z,12.32
2023-05-12T21:44:58.692Z,12.36
2023-05-12T21:47:52.332Z,12.34
2023-05-12T21:50:42.063Z,12.25
2023-05-12T21:53:31.242Z,12.36
2023-05-12T21:56:23.995Z,12.44
2023-05-12T21:59:13.524Z,12.34
2023-05-12T22:02:02.944Z,12.24
2023-05-12T22:04:49.815Z,12.12
2023-05-12T22:07:39.240Z,12.10
2023-05-12T22:10:27.952Z,12.09
2023-05-12T22:13:17.256Z,12.05
2023-05-12T22:16:12.422Z,11.96
2023-05-12T22:19:03.471Z,11.91
2023-05-12T22:21:53.193Z,11.96
2023-05-12T22:24:40.677Z,11.92
2023-05-12T22:27:28.605Z,11.93
2023-05-12T22:30:19.918Z,11.87
2023-05-12T22:33:11.234Z,11.86
2023-05-12T22:36:00.201Z,11.49
2023-05-12T22:38:46.313Z,11.59
2023-05-12T22:41:32.250Z,11.69
2023-05-12T22:44:18.252Z,11.63
2023-05-12T22:47:05.945Z,11.65
2023-05-12T22:49:51.993Z,12.04
2023-05-12T22:52:38.652Z,12.08
2023-05-12T22:55:27.477Z,12.05
2023-05-12T22:58:14.010Z,11.98
2023-05-12T23:01:01.101Z,11.91
2023-05-12T23:03:47.171Z,11.66
2023-05-12T23:06:33.428Z,11.72
2023-05-12T23:09:19.395Z,11.60
2023-05-12T23:12:05.696Z,11.51
2023-05-12T23:14:51.742Z,11.40
2023-05-12T23:17:37.886Z,11.47
2023-05-12T23:20:36.084Z,11.24
2023-05-12T23:23:21.691Z,11.23
2023-05-12T23:26:09.256Z,11.15
2023-05-12T23:28:55.015Z,11.23
2023-05-12T23:31:41.076Z,11.12
2023-05-12T23:34:26.860Z,11.00
2023-05-12T23:37:12.993Z,11.20
2023-05-12T23:39:59.706Z,11.14
2023-05-12T23:42:46.106Z,11.11
2023-05-12T23:45:32.091Z,11.00
2023-05-12T23:48:18.248Z,11.21
2023-05-12T23:51:04.505Z,10.99
2023-05-12T23:53:51.850Z,11.13
2023-05-12T23:56:37.478Z,10.96
2023-05-12T23:59:23.595Z,10.91
